Time;durP1;ratioP1;P1;durP2;ratioP2;P2;SDS_P1;SDS_P2;PMS_P1;PMS_P2;Temp;Humidity;BMP_temperature;BMP_pressure;BME280_temperature;BME280_humidity;BME280_pressure;Samples;Min_cycle;Max_cycle;Signal;HPM_P1;HPM_P2
2022/03/23 00:01:51;;;;;;;27.33;11.53;;;;;;;;;;5019908;28;20482;-79
2022/03/23 00:04:18;;;;;;;23.87;11.17;;;;;;;;;;5022657;28;20239;-77
2022/03/23 00:06:45;;;;;;;24.10;11.20;;;;;;;;;;5019940;28;20243;-79
2022/03/23 00:09:14;;;;;;;25.20;11.13;;;;;;;;;;5018542;28;20315;-77
2022/03/23 00:11:44;;;;;;;25.03;11.10;;;;;;;;;;5025778;28;20481;-78
2022/03/23 00:14:11;;;;;;;26.17;10.70;;;;;;;;;;5019911;28;20234;-78
2022/03/23 00:16:39;;;;;;;23.03;11.27;;;;;;;;;;5022952;28;20200;-77
2022/03/23 00:19:07;;;;;;;31.77;11.43;;;;;;;;;;5020903;28;20784;-77
2022/03/23 00:21:38;;;;;;;32.10;11.93;;;;;;;;;;5018289;28;20192;-77
2022/03/23 00:24:06;;;;;;;27.57;10.90;;;;;;;;;;5020964;28;20211;-79
2022/03/23 00:26:35;;;;;;;29.47;10.77;;;;;;;;;;5014933;28;20296;-77
2022/03/23 00:29:02;;;;;;;26.33;11.63;;;;;;;;;;5022404;28;20236;-78
2022/03/23 00:31:29;;;;;;;32.03;11.30;;;;;;;;;;5020732;28;20223;-77
2022/03/23 00:33:57;;;;;;;24.77;9.97;;;;;;;;;;5017898;28;20203;-78
2022/03/23 00:36:24;;;;;;;21.70;10.13;;;;;;;;;;5019030;28;20696;-79
2022/03/23 00:38:53;;;;;;;22.87;10.20;;;;;;;;;;5017586;28;20547;-78
2022/03/23 00:41:20;;;;;;;25.27;10.23;;;;;;;;;;5024489;28;20210;-78
2022/03/23 00:43:49;;;;;;;28.30;10.63;;;;;;;;;;5016000;28;20499;-77
2022/03/23 00:46:20;;;;;;;22.80;10.03;;;;;;;;;;5023632;28;20214;-78
2022/03/23 00:48:49;;;;;;;25.40;10.47;;;;;;;;;;5025341;28;20224;-78
2022/03/23 00:51:16;;;;;;;28.90;10.43;;;;;;;;;;5023293;28;20231;-80
2022/03/23 00:53:44;;;;;;;24.20;10.30;;;;;;;;;;5024072;28;20290;-78
2022/03/23 00:56:15;;;;;;;27.90;10.87;;;;;;;;;;5023597;28;20686;-78
2022/03/23 00:58:44;;;;;;;22.87;9.97;;;;;;;;;;5024650;28;20577;-77
2022/03/23 01:01:13;;;;;;;31.93;11.30;;;;;;;;;;5018907;28;20297;-81
2022/03/23 01:03:41;;;;;;;28.17;10.53;;;;;;;;;;5021935;28;20207;-79
2022/03/23 01:06:08;;;;;;;28.80;11.43;;;;;;;;;;5021496;28;20684;-78
2022/03/23 01:08:35;;;;;;;27.40;10.33;;;;;;;;;;5021800;28;20235;-77
2022/03/23 01:11:02;;;;;;;29.80;11.43;;;;;;;;;;5020044;28;20315;-80
2022/03/23 01:13:30;;;;;;;24.80;10.47;;;;;;;;;;5024507;28;20606;-81
2022/03/23 01:15:57;;;;;;;25.30;10.60;;;;;;;;;;5021304;28;20460;-80
2022/03/23 01:18:26;;;;;;;23.63;10.13;;;;;;;;;;5024370;28;20354;-77
2022/03/23 01:20:53;;;;;;;25.73;11.43;;;;;;;;;;5023735;28;20220;-82
2022/03/23 01:23:20;;;;;;;28.73;11.37;;;;;;;;;;5023281;28;20235;-81
2022/03/23 01:25:48;;;;;;;25.23;10.30;;;;;;;;;;5026352;28;20494;-79
2022/03/23 01:28:15;;;;;;;29.97;11.97;;;;;;;;;;5023091;28;21150;-81
2022/03/23 01:30:44;;;;;;;21.90;10.00;;;;;;;;;;5023186;28;20905;-78
2022/03/23 01:33:12;;;;;;;26.50;10.67;;;;;;;;;;5022102;28;20467;-80
2022/03/23 01:35:40;;;;;;;33.57;10.67;;;;;;;;;;5024566;28;20932;-78
2022/03/23 01:38:07;;;;;;;21.50;9.93;;;;;;;;;;5021036;28;20291;-79
2022/03/23 01:40:35;;;;;;;31.77;10.30;;;;;;;;;;5024026;28;20572;-77
2022/03/23 01:43:02;;;;;;;34.03;11.03;;;;;;;;;;5019628;28;20545;-80
2022/03/23 01:45:29;;;;;;;23.77;10.03;;;;;;;;;;5022243;28;20212;-78
2022/03/23 01:47:59;;;;;;;23.77;9.90;;;;;;;;;;5030521;28;20207;-78
2022/03/23 01:50:26;;;;;;;28.73;10.30;;;;;;;;;;5029339;28;20294;-80
2022/03/23 01:52:55;;;;;;;28.77;11.10;;;;;;;;;;5028254;28;20569;-79
2022/03/23 01:55:22;;;;;;;22.63;10.83;;;;;;;;;;5029190;28;20549;-79
2022/03/23 01:57:52;;;;;;;22.67;10.57;;;;;;;;;;5030724;28;21055;-78
2022/03/23 02:00:20;;;;;;;24.17;10.27;;;;;;;;;;5028864;28;20462;-80
2022/03/23 02:02:47;;;;;;;24.87;10.67;;;;;;;;;;5023993;28;20457;-80
2022/03/23 02:05:16;;;;;;;24.13;10.77;;;;;;;;;;5026049;28;20620;-81
2022/03/23 02:07:43;;;;;;;22.50;10.10;;;;;;;;;;5027158;28;20579;-79
2022/03/23 02:10:12;;;;;;;23.40;9.63;;;;;;;;;;5021414;28;20509;-78
2022/03/23 02:12:40;;;;;;;23.80;10.63;;;;;;;;;;5022156;28;20485;-77
2022/03/23 02:15:13;;;;;;;25.17;10.30;;;;;;;;;;5025681;28;20478;-77
2022/03/23 02:17:42;;;;;;;24.83;10.60;;;;;;;;;;5021600;28;20541;-79
2022/03/23 02:20:09;;;;;;;25.27;10.97;;;;;;;;;;5022076;28;20486;-79
2022/03/23 02:22:38;;;;;;;37.60;11.53;;;;;;;;;;5025679;28;20453;-78
2022/03/23 02:25:06;;;;;;;28.27;10.53;;;;;;;;;;5020603;28;21781;-79
2022/03/23 02:27:34;;;;;;;24.27;10.30;;;;;;;;;;5028289;28;20470;-79
2022/03/23 02:30:01;;;;;;;28.53;11.47;;;;;;;;;;5020116;28;20977;-80
2022/03/23 02:32:29;;;;;;;28.47;11.27;;;;;;;;;;5027037;28;20490;-78
2022/03/23 02:34:56;;;;;;;25.07;10.03;;;;;;;;;;5018889;28;20474;-78
2022/03/23 02:37:23;;;;;;;24.27;10.23;;;;;;;;;;5022833;28;20453;-78
2022/03/23 02:39:52;;;;;;;21.43;9.47;;;;;;;;;;5018283;28;20493;-78
2022/03/23 02:42:19;;;;;;;26.57;11.30;;;;;;;;;;5026972;28;20795;-78
2022/03/23 02:44:46;;;;;;;27.47;10.47;;;;;;;;;;5020409;28;20489;-80
2022/03/23 02:47:14;;;;;;;26.73;10.37;;;;;;;;;;5018952;28;21125;-78
2022/03/23 02:49:43;;;;;;;25.70;10.77;;;;;;;;;;5027231;28;20558;-78
2022/03/23 02:52:10;;;;;;;29.20;10.63;;;;;;;;;;5016529;28;20481;-77
2022/03/23 03:03:21;;;;;;;24.67;10.80;;;;;;;;;;4995832;28;20535;-77
2022/03/23 03:05:48;;;;;;;27.47;10.67;;;;;;;;;;5019270;28;20566;-79
2022/03/23 03:11:00;;;;;;;26.77;10.67;;;;;;;;;;5019225;28;20472;-77
2022/03/23 03:13:34;;;;;;;29.20;11.33;;;;;;;;;;5016885;28;20568;-78
2022/03/23 03:16:02;;;;;;;27.40;11.50;;;;;;;;;;5017453;28;20459;-78
2022/03/23 03:18:31;;;;;;;33.77;10.33;;;;;;;;;;5015284;28;22068;-78
2022/03/23 03:20:58;;;;;;;25.30;10.43;;;;;;;;;;5016507;28;20891;-77
2022/03/23 03:23:26;;;;;;;30.53;11.50;;;;;;;;;;5021836;28;20886;-78
2022/03/23 03:25:53;;;;;;;26.20;9.80;;;;;;;;;;5023613;28;20458;-78
2022/03/23 03:28:21;;;;;;;24.30;10.63;;;;;;;;;;5015975;28;20573;-78
2022/03/23 03:33:53;;;;;;;28.00;10.23;;;;;;;;;;5021190;28;20794;-79
2022/03/23 03:36:20;;;;;;;24.70;10.63;;;;;;;;;;5018895;28;20470;-78
2022/03/23 03:38:47;;;;;;;32.00;10.43;;;;;;;;;;5017219;28;20606;-80
2022/03/23 03:41:16;;;;;;;27.97;11.20;;;;;;;;;;5023758;28;20486;-77
2022/03/23 03:43:44;;;;;;;28.40;11.07;;;;;;;;;;5013991;28;20462;-79
2022/03/23 03:46:12;;;;;;;24.83;10.20;;;;;;;;;;5017532;28;20513;-76
2022/03/23 03:48:41;;;;;;;30.53;10.80;;;;;;;;;;5017463;28;20575;-79
2022/03/23 03:51:08;;;;;;;29.10;10.67;;;;;;;;;;5020066;28;20466;-77
2022/03/23 03:53:36;;;;;;;23.97;9.57;;;;;;;;;;5023266;28;20477;-80
2022/03/23 03:56:04;;;;;;;26.73;10.90;;;;;;;;;;5023872;28;20490;-79
2022/03/23 03:58:31;;;;;;;27.13;10.70;;;;;;;;;;5020076;28;20495;-76
2022/03/23 04:00:58;;;;;;;25.83;10.67;;;;;;;;;;5019655;28;20460;-78
2022/03/23 04:03:27;;;;;;;24.53;11.00;;;;;;;;;;5020284;28;20458;-76
2022/03/23 04:05:54;;;;;;;29.87;10.67;;;;;;;;;;5021924;28;20539;-79
2022/03/23 04:08:21;;;;;;;26.07;11.17;;;;;;;;;;5020224;28;20483;-78
2022/03/23 04:10:48;;;;;;;26.77;10.97;;;;;;;;;;5021509;28;20458;-78
2022/03/23 04:13:15;;;;;;;29.17;11.67;;;;;;;;;;5017438;28;20482;-78
2022/03/23 04:15:43;;;;;;;30.17;11.03;;;;;;;;;;5018480;28;20477;-79
2022/03/23 04:18:10;;;;;;;22.87;9.93;;;;;;;;;;5016122;28;20560;-77
2022/03/23 04:20:38;;;;;;;26.70;10.73;;;;;;;;;;5017696;28;20458;-78
2022/03/23 04:23:05;;;;;;;31.70;11.57;;;;;;;;;;5020935;28;20577;-78
2022/03/23 04:25:33;;;;;;;33.63;10.93;;;;;;;;;;5022936;28;20465;-78
2022/03/23 04:28:00;;;;;;;29.83;10.63;;;;;;;;;;5015957;28;20469;-77
2022/03/23 04:30:30;;;;;;;22.73;9.83;;;;;;;;;;5021075;28;20470;-78
2022/03/23 04:33:01;;;;;;;27.80;11.00;;;;;;;;;;5022519;28;20489;-79
2022/03/23 04:35:29;;;;;;;32.37;12.03;;;;;;;;;;5023074;28;20469;-78
2022/03/23 04:37:58;;;;;;;27.60;10.47;;;;;;;;;;5013231;28;20459;-78
2022/03/23 04:40:26;;;;;;;28.33;11.47;;;;;;;;;;5014322;28;20545;-78
2022/03/23 04:42:53;;;;;;;27.80;11.00;;;;;;;;;;5015526;28;20455;-78
2022/03/23 04:45:20;;;;;;;28.47;11.30;;;;;;;;;;5016831;28;20541;-77
2022/03/23 04:47:47;;;;;;;35.43;12.07;;;;;;;;;;5017052;28;20958;-78
2022/03/23 04:50:16;;;;;;;25.97;10.77;;;;;;;;;;5018862;28;20518;-77
2022/03/23 04:52:44;;;;;;;30.53;12.33;;;;;;;;;;5019011;28;20495;-78
2022/03/23 04:55:13;;;;;;;38.33;12.53;;;;;;;;;;5022837;28;20526;-78
2022/03/23 04:57:41;;;;;;;28.20;11.17;;;;;;;;;;5013700;28;20478;-78
2022/03/23 05:00:10;;;;;;;30.57;11.90;;;;;;;;;;5019059;28;20922;-79
2022/03/23 05:02:39;;;;;;;37.90;11.23;;;;;;;;;;5019311;28;20461;-78
2022/03/23 05:05:06;;;;;;;29.33;11.63;;;;;;;;;;5022045;28;20466;-79
2022/03/23 05:07:33;;;;;;;26.27;11.43;;;;;;;;;;5017139;28;20466;-78
2022/03/23 05:10:01;;;;;;;30.90;11.07;;;;;;;;;;5020351;28;20485;-77
2022/03/23 05:12:29;;;;;;;28.73;11.30;;;;;;;;;;5013753;28;20586;-77
2022/03/23 05:14:58;;;;;;;32.03;11.97;;;;;;;;;;5018701;28;20470;-78
2022/03/23 05:17:26;;;;;;;32.53;11.53;;;;;;;;;;5018961;28;20454;-77
2022/03/23 05:19:54;;;;;;;30.07;10.70;;;;;;;;;;5016585;28;20483;-78
2022/03/23 05:22:21;;;;;;;31.73;12.03;;;;;;;;;;5011201;28;20490;-78
2022/03/23 05:24:48;;;;;;;30.87;11.77;;;;;;;;;;5017117;28;20462;-78
2022/03/23 05:27:19;;;;;;;27.20;11.50;;;;;;;;;;5012697;28;20475;-76
2022/03/23 05:29:47;;;;;;;31.87;11.83;;;;;;;;;;5015786;28;20489;-79
2022/03/23 05:32:17;;;;;;;32.00;12.30;;;;;;;;;;5016625;28;20463;-78
2022/03/23 05:34:45;;;;;;;27.77;11.13;;;;;;;;;;5015879;28;20469;-78
2022/03/23 05:37:12;;;;;;;42.73;12.30;;;;;;;;;;5011920;28;20458;-78
2022/03/23 05:39:40;;;;;;;29.70;11.47;;;;;;;;;;5015865;28;20514;-78
2022/03/23 05:42:07;;;;;;;37.47;12.67;;;;;;;;;;5016833;28;20843;-77
2022/03/23 05:44:34;;;;;;;37.53;12.73;;;;;;;;;;5014113;28;20464;-78
2022/03/23 05:47:03;;;;;;;33.83;12.60;;;;;;;;;;5012189;28;20462;-78
2022/03/23 05:49:30;;;;;;;28.83;11.23;;;;;;;;;;5016819;28;20612;-78
2022/03/23 05:51:57;;;;;;;33.63;11.47;;;;;;;;;;5016099;28;20868;-78
2022/03/23 05:54:24;;;;;;;29.90;11.67;;;;;;;;;;5019839;28;20548;-80
2022/03/23 05:56:52;;;;;;;34.67;11.63;;;;;;;;;;5016349;28;20465;-79
2022/03/23 05:59:19;;;;;;;36.03;12.43;;;;;;;;;;5018767;28;20487;-81
2022/03/23 06:01:47;;;;;;;31.97;11.37;;;;;;;;;;5021510;28;20835;-79
2022/03/23 06:04:16;;;;;;;28.00;12.13;;;;;;;;;;5007863;28;20463;-79
2022/03/23 06:06:43;;;;;;;30.93;12.07;;;;;;;;;;5009627;28;20498;-80
2022/03/23 06:09:12;;;;;;;31.47;11.53;;;;;;;;;;5022493;28;20505;-78
2022/03/23 06:11:39;;;;;;;30.47;12.03;;;;;;;;;;5014984;28;20470;-79
2022/03/23 06:14:06;;;;;;;38.70;13.07;;;;;;;;;;5016009;28;20532;-78
2022/03/23 06:16:34;;;;;;;38.70;13.77;;;;;;;;;;5011359;28;20466;-80
2022/03/23 06:19:01;;;;;;;45.93;17.47;;;;;;;;;;5017203;28;20315;-79
2022/03/23 06:21:29;;;;;;;40.37;15.40;;;;;;;;;;5016481;28;20470;-79
2022/03/23 06:23:57;;;;;;;34.97;14.97;;;;;;;;;;5016618;28;21219;-79
2022/03/23 06:26:24;;;;;;;38.67;13.47;;;;;;;;;;5015363;28;20235;-79
2022/03/23 06:28:52;;;;;;;34.27;13.63;;;;;;;;;;5017341;28;20526;-79
2022/03/23 06:31:20;;;;;;;33.27;13.10;;;;;;;;;;5022307;28;20490;-80
2022/03/23 06:33:50;;;;;;;37.83;13.73;;;;;;;;;;5018708;28;20334;-80
2022/03/23 06:36:18;;;;;;;32.30;14.50;;;;;;;;;;5022903;28;20318;-80
2022/03/23 06:38:48;;;;;;;46.57;16.83;;;;;;;;;;5020636;28;20303;-80
2022/03/23 06:41:15;;;;;;;54.23;19.87;;;;;;;;;;5023554;28;20208;-80
2022/03/23 06:43:42;;;;;;;54.90;20.40;;;;;;;;;;5027812;28;20571;-80
2022/03/23 06:46:09;;;;;;;47.00;18.80;;;;;;;;;;5029392;28;21222;-79
2022/03/23 06:48:37;;;;;;;47.67;18.00;;;;;;;;;;5019692;28;20322;-79
2022/03/23 06:51:04;;;;;;;44.97;18.10;;;;;;;;;;5031327;22;20290;-79
2022/03/23 06:53:32;;;;;;;38.00;16.60;;;;;;;;;;5019056;28;20321;-80
2022/03/23 06:56:00;;;;;;;33.20;15.43;;;;;;;;;;5014496;28;20236;-79
2022/03/23 06:58:29;;;;;;;28.90;14.90;;;;;;;;;;5017539;28;20357;-80
2022/03/23 07:00:57;;;;;;;30.13;14.53;;;;;;;;;;5017529;28;20204;-79
2022/03/23 07:03:24;;;;;;;28.83;15.07;;;;;;;;;;5020296;28;20200;-80
2022/03/23 07:05:51;;;;;;;29.90;14.37;;;;;;;;;;5021191;28;20243;-80
2022/03/23 07:11:18;;;;;;;35.70;13.53;;;;;;;;;;4987875;28;20674;-80
2022/03/23 07:13:47;;;;;;;25.00;13.40;;;;;;;;;;5025538;28;20301;-79
2022/03/23 07:16:14;;;;;;;22.23;12.70;;;;;;;;;;5026520;28;20195;-80
2022/03/23 07:18:41;;;;;;;21.80;11.40;;;;;;;;;;5025235;28;20216;-80
2022/03/23 07:21:10;;;;;;;25.10;13.53;;;;;;;;;;5023251;28;20205;-79
2022/03/23 07:23:37;;;;;;;24.80;13.43;;;;;;;;;;5025302;28;20211;-79
2022/03/23 07:26:04;;;;;;;27.10;14.53;;;;;;;;;;5027195;28;20235;-79
2022/03/23 07:28:33;;;;;;;29.37;14.17;;;;;;;;;;5039685;28;20227;-81
2022/03/23 07:31:01;;;;;;;27.80;14.30;;;;;;;;;;5043221;28;20502;-80
2022/03/23 07:33:28;;;;;;;26.23;14.13;;;;;;;;;;5046079;28;20231;-80
2022/03/23 07:35:56;;;;;;;29.67;14.50;;;;;;;;;;5040097;28;20202;-79
2022/03/23 07:38:23;;;;;;;26.37;13.10;;;;;;;;;;5039289;28;20251;-79
2022/03/23 07:40:50;;;;;;;27.00;13.13;;;;;;;;;;5036588;28;20228;-79
2022/03/23 07:43:17;;;;;;;28.73;13.17;;;;;;;;;;5024062;28;20320;-78
2022/03/23 07:45:49;;;;;;;26.20;13.07;;;;;;;;;;5023378;28;20690;-78
2022/03/23 07:48:16;;;;;;;25.67;11.63;;;;;;;;;;5021289;28;20319;-78
2022/03/23 07:50:44;;;;;;;28.57;11.37;;;;;;;;;;5022107;28;20215;-77
2022/03/23 07:53:11;;;;;;;25.60;12.23;;;;;;;;;;5017453;28;20259;-79
2022/03/23 07:55:38;;;;;;;27.17;12.80;;;;;;;;;;5018629;28;20602;-79
2022/03/23 07:58:06;;;;;;;23.63;13.53;;;;;;;;;;5017617;28;20291;-78
2022/03/23 08:00:34;;;;;;;25.90;13.37;;;;;;;;;;5015235;28;20407;-78
2022/03/23 08:03:02;;;;;;;25.13;12.40;;;;;;;;;;5020848;28;20269;-79
2022/03/23 08:05:30;;;;;;;23.67;12.00;;;;;;;;;;5015663;28;20211;-78
2022/03/23 08:07:58;;;;;;;25.23;13.60;;;;;;;;;;5022507;28;20204;-79
2022/03/23 08:10:25;;;;;;;25.33;12.40;;;;;;;;;;5020326;28;20214;-78
2022/03/23 08:12:53;;;;;;;24.30;11.70;;;;;;;;;;5026253;28;20234;-81
2022/03/23 08:15:20;;;;;;;29.97;12.67;;;;;;;;;;5019543;28;20208;-77
2022/03/23 08:17:48;;;;;;;26.20;11.30;;;;;;;;;;5017377;28;20216;-79
2022/03/23 08:20:36;;;;;;;27.37;12.47;;;;;;;;;;5018846;28;20315;-79
2022/03/23 08:23:04;;;;;;;26.33;11.93;;;;;;;;;;5019243;28;20239;-78
2022/03/23 08:25:31;;;;;;;30.23;11.97;;;;;;;;;;5018328;28;20211;-79
2022/03/23 08:27:59;;;;;;;25.17;11.73;;;;;;;;;;5020855;28;20299;-78
2022/03/23 08:30:27;;;;;;;25.87;12.90;;;;;;;;;;5020439;28;20723;-79
2022/03/23 08:32:55;;;;;;;24.37;11.43;;;;;;;;;;5020112;28;20643;-78
2022/03/23 08:35:24;;;;;;;29.37;12.63;;;;;;;;;;5017484;28;20612;-78
2022/03/23 08:37:51;;;;;;;24.60;12.23;;;;;;;;;;5024000;28;20214;-78
2022/03/23 08:40:18;;;;;;;27.97;11.67;;;;;;;;;;5021306;28;20278;-77
2022/03/23 08:42:46;;;;;;;23.70;11.70;;;;;;;;;;5017787;28;20231;-78
2022/03/23 08:45:13;;;;;;;29.70;12.10;;;;;;;;;;5017972;28;20204;-78
2022/03/23 08:47:40;;;;;;;26.90;11.73;;;;;;;;;;5020377;28;20623;-78
2022/03/23 08:50:09;;;;;;;25.20;12.67;;;;;;;;;;5014691;28;20256;-81
2022/03/23 08:52:38;;;;;;;21.80;11.60;;;;;;;;;;5019725;28;20277;-80
2022/03/23 08:55:06;;;;;;;23.37;13.00;;;;;;;;;;5022223;28;20224;-77
2022/03/23 08:57:33;;;;;;;30.17;13.77;;;;;;;;;;5019572;28;20693;-78
2022/03/23 09:00:00;;;;;;;25.97;13.30;;;;;;;;;;5017335;28;20307;-79
2022/03/23 09:02:28;;;;;;;28.33;12.80;;;;;;;;;;5019236;28;20231;-78
2022/03/23 09:04:55;;;;;;;24.30;13.17;;;;;;;;;;5027233;28;20246;-78
2022/03/23 09:07:22;;;;;;;20.20;12.37;;;;;;;;;;5016854;28;20223;-79
2022/03/23 09:09:51;;;;;;;23.97;13.13;;;;;;;;;;5015435;28;20231;-77
2022/03/23 09:12:18;;;;;;;26.17;12.77;;;;;;;;;;5017997;28;20228;-78
2022/03/23 09:14:45;;;;;;;24.57;13.13;;;;;;;;;;5019143;28;20248;-80
2022/03/23 09:17:12;;;;;;;22.93;11.80;;;;;;;;;;5020966;28;20266;-80
2022/03/23 09:19:39;;;;;;;22.57;11.90;;;;;;;;;;5019870;28;20793;-79
2022/03/23 09:22:07;;;;;;;25.67;12.27;;;;;;;;;;5018451;28;20214;-79
2022/03/23 09:24:34;;;;;;;26.73;13.00;;;;;;;;;;5023710;28;20645;-80
2022/03/23 09:27:03;;;;;;;29.40;13.43;;;;;;;;;;5015891;28;20956;-80
2022/03/23 09:29:30;;;;;;;24.20;11.70;;;;;;;;;;5019008;28;20284;-78
2022/03/23 09:31:57;;;;;;;24.37;12.70;;;;;;;;;;5016664;28;20208;-80
2022/03/23 09:34:25;;;;;;;25.07;12.67;;;;;;;;;;5020477;28;20317;-80
2022/03/23 09:39:36;;;;;;;31.77;12.53;;;;;;;;;;5018768;28;20214;-79
2022/03/23 09:42:07;;;;;;;26.33;12.90;;;;;;;;;;5018949;28;20295;-80
2022/03/23 09:44:34;;;;;;;34.33;13.03;;;;;;;;;;5020157;28;20204;-79
2022/03/23 09:47:05;;;;;;;25.70;12.40;;;;;;;;;;5016902;28;20234;-78
2022/03/23 09:49:32;;;;;;;26.93;11.77;;;;;;;;;;5021328;28;20399;-79
2022/03/23 09:51:59;;;;;;;23.13;12.73;;;;;;;;;;5018316;28;20211;-79
2022/03/23 09:54:26;;;;;;;28.20;12.00;;;;;;;;;;5012849;28;20252;-80
2022/03/23 09:56:54;;;;;;;21.27;11.63;;;;;;;;;;5017110;28;20212;-80
2022/03/23 09:59:22;;;;;;;25.57;11.93;;;;;;;;;;5014374;28;20310;-80
2022/03/23 10:02:12;;;;;;;24.50;11.63;;;;;;;;;;5019370;28;20319;-80
2022/03/23 10:04:58;;;;;;;22.23;10.33;;;;;;;;;;5015303;28;20606;-79
2022/03/23 10:07:28;;;;;;;20.60;9.87;;;;;;;;;;5014162;28;20710;-78
2022/03/23 10:10:13;;;;;;;22.73;9.83;;;;;;;;;;5018095;28;20458;-77
2022/03/23 10:12:59;;;;;;;17.27;9.00;;;;;;;;;;5012229;28;20299;-78
2022/03/23 10:15:50;;;;;;;14.97;8.70;;;;;;;;;;5016043;28;20302;-78
2022/03/23 10:18:41;;;;;;;15.87;8.30;;;;;;;;;;5009498;28;20226;-76
2022/03/23 10:21:08;;;;;;;11.60;7.33;;;;;;;;;;5018194;28;20215;-78
2022/03/23 10:23:35;;;;;;;12.97;6.80;;;;;;;;;;5019801;28;20358;-78
2022/03/23 10:26:12;;;;;;;12.07;7.13;;;;;;;;;;5016958;28;20303;-77
2022/03/23 10:28:39;;;;;;;11.97;7.20;;;;;;;;;;5024238;28;20234;-78
2022/03/23 10:31:16;;;;;;;14.77;6.93;;;;;;;;;;5023737;28;20753;-77
2022/03/23 10:33:45;;;;;;;12.83;8.23;;;;;;;;;;5018495;28;20215;-77
2022/03/23 10:36:12;;;;;;;13.30;7.53;;;;;;;;;;5019740;28;20287;-77
2022/03/23 10:38:41;;;;;;;18.70;8.10;;;;;;;;;;5017910;28;20228;-78
2022/03/23 10:41:12;;;;;;;16.73;7.77;;;;;;;;;;5024361;28;20331;-79
2022/03/23 10:43:40;;;;;;;16.70;7.87;;;;;;;;;;5018395;28;20205;-79
2022/03/23 10:46:08;;;;;;;14.07;7.90;;;;;;;;;;5019407;28;20618;-79
2022/03/23 10:48:36;;;;;;;15.33;7.50;;;;;;;;;;5024762;28;20236;-77
2022/03/23 10:51:04;;;;;;;17.57;7.60;;;;;;;;;;5018798;28;20220;-79
2022/03/23 10:53:32;;;;;;;13.80;7.63;;;;;;;;;;5021642;28;20200;-78
2022/03/23 10:56:00;;;;;;;19.80;7.33;;;;;;;;;;5023086;28;20224;-78
2022/03/23 11:01:31;;;;;;;12.77;6.73;;;;;;;;;;5019555;28;20233;-78
2022/03/23 11:04:08;;;;;;;10.80;6.77;;;;;;;;;;5022250;28;20733;-78
2022/03/23 11:06:42;;;;;;;11.23;6.47;;;;;;;;;;5016582;28;20210;-79
2022/03/23 11:17:30;;;;;;;12.83;6.97;;;;;;;;;;5015835;28;20277;-78
2022/03/23 11:20:02;;;;;;;12.40;7.17;;;;;;;;;;5013175;28;20558;-78
2022/03/23 11:22:35;;;;;;;14.07;7.30;;;;;;;;;;5012572;28;20227;-78
2022/03/23 11:25:03;;;;;;;12.93;7.30;;;;;;;;;;5010265;28;21098;-77
2022/03/23 11:27:31;;;;;;;14.73;7.53;;;;;;;;;;5015007;28;20204;-78
2022/03/23 11:29:58;;;;;;;16.13;7.00;;;;;;;;;;5017876;28;20224;-77
2022/03/23 11:32:27;;;;;;;13.33;6.93;;;;;;;;;;5013010;28;21365;-80
2022/03/23 11:34:56;;;;;;;11.37;6.90;;;;;;;;;;5014424;28;20926;-78
2022/03/23 11:37:25;;;;;;;14.20;6.83;;;;;;;;;;5016464;28;20698;-78
2022/03/23 11:39:53;;;;;;;13.20;7.23;;;;;;;;;;5017349;28;20260;-78
2022/03/23 11:42:22;;;;;;;13.43;6.93;;;;;;;;;;5022153;28;20211;-77
2022/03/23 11:44:50;;;;;;;16.00;7.23;;;;;;;;;;5023174;28;20195;-78
2022/03/23 11:47:27;;;;;;;14.27;7.93;;;;;;;;;;5021137;28;20298;-79
2022/03/23 11:49:57;;;;;;;17.03;8.50;;;;;;;;;;5023841;28;20704;-77
2022/03/23 11:52:32;;;;;;;19.50;10.00;;;;;;;;;;5015599;28;20296;-79
2022/03/23 11:58:18;;;;;;;18.60;7.57;;;;;;;;;;5020536;28;20330;-77
2022/03/23 12:00:46;;;;;;;15.17;8.13;;;;;;;;;;5017538;28;20773;-78
2022/03/23 12:03:13;;;;;;;15.90;8.77;;;;;;;;;;5016372;28;20227;-78
2022/03/23 12:05:51;;;;;;;17.53;9.30;;;;;;;;;;5019181;28;20219;-77
2022/03/23 12:08:37;;;;;;;20.37;9.73;;;;;;;;;;5019561;28;20223;-78
2022/03/23 12:11:25;;;;;;;18.47;9.63;;;;;;;;;;5023860;28;20290;-78
2022/03/23 12:14:01;;;;;;;19.20;9.30;;;;;;;;;;5020113;28;20697;-78
2022/03/23 12:16:43;;;;;;;16.60;9.43;;;;;;;;;;5013881;28;20880;-79
2022/03/23 12:19:10;;;;;;;16.23;9.20;;;;;;;;;;5013820;28;20219;-79
2022/03/23 12:21:48;;;;;;;19.40;8.73;;;;;;;;;;5006144;28;20207;-79
2022/03/23 12:24:19;;;;;;;21.10;8.83;;;;;;;;;;5017505;28;20286;-79
2022/03/23 12:26:51;;;;;;;13.10;7.60;;;;;;;;;;5015073;28;20204;-77
2022/03/23 12:29:23;;;;;;;19.90;8.90;;;;;;;;;;5017711;28;20216;-79
2022/03/23 12:31:52;;;;;;;13.10;7.80;;;;;;;;;;5014652;28;20199;-77
2022/03/23 12:34:20;;;;;;;16.87;9.07;;;;;;;;;;5019872;28;20287;-80
2022/03/23 12:36:59;;;;;;;16.17;8.80;;;;;;;;;;5021821;28;20195;-79
2022/03/23 12:39:37;;;;;;;17.27;9.57;;;;;;;;;;5024657;28;20220;-78
2022/03/23 12:42:22;;;;;;;15.37;8.60;;;;;;;;;;5020260;28;20204;-78
2022/03/23 12:45:02;;;;;;;17.60;9.07;;;;;;;;;;5018135;28;20235;-80
2022/03/23 12:47:31;;;;;;;20.00;8.73;;;;;;;;;;5011530;28;20211;-79
2022/03/23 12:58:03;;;;;;;19.00;9.47;;;;;;;;;;5031039;28;20226;-78
2022/03/23 13:00:32;;;;;;;16.87;9.70;;;;;;;;;;5033325;28;20226;-78
2022/03/23 13:03:22;;;;;;;20.43;9.50;;;;;;;;;;5036152;28;20192;-79
2022/03/23 13:06:04;;;;;;;21.13;9.00;;;;;;;;;;5007876;28;20203;-79
2022/03/23 13:08:48;;;;;;;17.60;9.13;;;;;;;;;;5042614;28;20593;-78
2022/03/23 13:11:18;;;;;;;21.30;10.00;;;;;;;;;;5037298;28;20210;-79
2022/03/23 13:13:50;;;;;;;16.40;9.20;;;;;;;;;;5038486;28;20199;-76
2022/03/23 13:16:20;;;;;;;17.40;9.43;;;;;;;;;;5034606;28;20226;-77
2022/03/23 13:18:47;;;;;;;19.70;9.47;;;;;;;;;;5042193;28;20744;-79
2022/03/23 13:21:16;;;;;;;24.23;9.90;;;;;;;;;;5040090;28;20196;-76
2022/03/23 13:23:44;;;;;;;18.33;9.10;;;;;;;;;;5038558;28;20222;-78
2022/03/23 13:26:12;;;;;;;18.83;9.33;;;;;;;;;;5034536;28;20574;-78
2022/03/23 13:28:41;;;;;;;18.77;9.00;;;;;;;;;;5036250;28;20230;-77
2022/03/23 13:31:09;;;;;;;18.97;8.90;;;;;;;;;;5032599;28;21614;-77
2022/03/23 13:33:38;;;;;;;17.07;9.30;;;;;;;;;;5035100;28;20295;-76
2022/03/23 13:36:07;;;;;;;18.83;8.30;;;;;;;;;;5040823;28;20218;-76
2022/03/23 13:38:38;;;;;;;22.10;9.33;;;;;;;;;;5029017;28;20695;-78
2022/03/23 13:43:51;;;;;;;17.90;9.30;;;;;;;;;;5008086;28;20438;-79
2022/03/23 13:46:18;;;;;;;18.03;9.33;;;;;;;;;;5038982;28;20605;-80
2022/03/23 13:48:53;;;;;;;15.47;9.50;;;;;;;;;;5041078;28;20310;-77
2022/03/23 13:51:21;;;;;;;22.03;10.03;;;;;;;;;;5032538;28;20199;-78
2022/03/23 13:53:48;;;;;;;23.93;10.90;;;;;;;;;;5038232;28;20211;-78
2022/03/23 13:56:17;;;;;;;22.07;10.30;;;;;;;;;;5025058;28;20230;-78
2022/03/23 13:58:45;;;;;;;18.30;9.40;;;;;;;;;;5030044;28;20223;-77
2022/03/23 14:01:12;;;;;;;19.73;9.53;;;;;;;;;;5039761;28;20203;-77
2022/03/23 14:03:40;;;;;;;21.17;9.97;;;;;;;;;;5037943;28;20325;-79
2022/03/23 14:06:11;;;;;;;20.73;9.47;;;;;;;;;;5037995;28;20227;-76
2022/03/23 14:08:39;;;;;;;15.00;8.73;;;;;;;;;;5040418;28;20558;-78
2022/03/23 14:11:08;;;;;;;20.63;9.07;;;;;;;;;;5035165;28;20199;-78
2022/03/23 14:13:38;;;;;;;23.87;9.70;;;;;;;;;;5034640;28;20210;-79
2022/03/23 14:16:06;;;;;;;19.30;9.73;;;;;;;;;;5030643;28;20246;-77
2022/03/23 14:18:34;;;;;;;22.23;9.23;;;;;;;;;;5031307;28;20221;-78
2022/03/23 14:21:03;;;;;;;18.93;9.47;;;;;;;;;;5035215;28;20564;-79
2022/03/23 14:23:33;;;;;;;19.73;9.57;;;;;;;;;;5035835;28;20431;-77
2022/03/23 14:26:20;;;;;;;18.50;9.80;;;;;;;;;;5038213;28;20230;-76
2022/03/23 14:28:48;;;;;;;18.03;9.17;;;;;;;;;;5040517;28;20226;-78
2022/03/23 14:31:19;;;;;;;17.33;10.27;;;;;;;;;;5037833;28;21576;-76
2022/03/23 14:33:52;;;;;;;18.37;9.23;;;;;;;;;;5035470;28;20205;-76
2022/03/23 14:36:24;;;;;;;19.43;9.60;;;;;;;;;;5036533;28;20215;-76
2022/03/23 14:38:52;;;;;;;18.30;9.67;;;;;;;;;;5032019;28;20598;-77
2022/03/23 14:41:21;;;;;;;16.33;8.87;;;;;;;;;;5034933;28;20227;-76
2022/03/23 14:43:49;;;;;;;20.40;9.30;;;;;;;;;;5037761;28;20230;-76
2022/03/23 14:46:20;;;;;;;20.03;8.60;;;;;;;;;;5033704;28;20300;-77
2022/03/23 14:48:48;;;;;;;19.50;8.60;;;;;;;;;;5031894;28;20233;-76
2022/03/23 14:51:16;;;;;;;19.07;8.93;;;;;;;;;;5033504;28;20206;-77
2022/03/23 14:53:47;;;;;;;19.07;8.97;;;;;;;;;;5031115;28;20771;-77
2022/03/23 14:56:15;;;;;;;18.03;9.10;;;;;;;;;;5028461;28;20223;-76
2022/03/23 14:58:43;;;;;;;18.93;8.93;;;;;;;;;;5040352;28;20223;-77
2022/03/23 15:01:10;;;;;;;16.83;8.97;;;;;;;;;;5040507;28;21999;-76
2022/03/23 15:03:38;;;;;;;17.53;9.80;;;;;;;;;;5039125;28;20228;-77
2022/03/23 15:14:22;;;;;;;21.10;9.70;;;;;;;;;;5039583;28;21737;-77
2022/03/23 15:16:49;;;;;;;16.87;8.60;;;;;;;;;;5037069;28;21107;-77
2022/03/23 15:19:16;;;;;;;19.97;9.60;;;;;;;;;;5037564;28;20312;-78
2022/03/23 15:21:45;;;;;;;17.43;9.27;;;;;;;;;;5033900;28;20210;-78
2022/03/23 15:24:12;;;;;;;16.27;8.80;;;;;;;;;;5037002;28;20688;-76
2022/03/23 15:26:41;;;;;;;20.10;8.83;;;;;;;;;;5034228;28;20291;-77